sensor_id;sensor_type;location;lat;lon;timestamp;P1;durP1;ratioP1;P2;durP2;ratioP2
46753;SDS011;32500;50.620;3.400;2024-02-26T00:01:40;148.68;;;56.63;;
46753;SDS011;32500;50.620;3.400;2024-02-26T00:04:05;146.98;;;56.40;;
46753;SDS011;32500;50.620;3.400;2024-02-26T00:06:31;149.02;;;56.67;;
46753;SDS011;32500;50.620;3.400;2024-02-26T00:08:57;146.00;;;55.83;;
46753;SDS011;32500;50.620;3.400;2024-02-26T00:11:23;147.35;;;56.55;;
46753;SDS011;32500;50.620;3.400;2024-02-26T00:13:49;146.93;;;56.53;;
46753;SDS011;32500;50.620;3.400;2024-02-26T00:16:14;147.52;;;56.03;;
46753;SDS011;32500;50.620;3.400;2024-02-26T00:18:40;147.43;;;56.53;;
46753;SDS011;32500;50.620;3.400;2024-02-26T00:21:06;146.82;;;56.33;;
46753;SDS011;32500;50.620;3.400;2024-02-26T00:23:31;146.52;;;56.40;;
46753;SDS011;32500;50.620;3.400;2024-02-26T00:25:57;148.15;;;56.10;;
46753;SDS011;32500;50.620;3.400;2024-02-26T00:28:23;147.32;;;56.40;;
46753;SDS011;32500;50.620;3.400;2024-02-26T00:30:50;146.45;;;56.28;;
46753;SDS011;32500;50.620;3.400;2024-02-26T00:33:20;146.60;;;56.28;;
46753;SDS011;32500;50.620;3.400;2024-02-26T00:35:46;147.30;;;56.35;;
46753;SDS011;32500;50.620;3.400;2024-02-26T00:38:12;146.00;;;55.97;;
46753;SDS011;32500;50.620;3.400;2024-02-26T00:40:38;146.40;;;55.83;;
46753;SDS011;32500;50.620;3.400;2024-02-26T00:43:03;147.30;;;55.75;;
46753;SDS011;32500;50.620;3.400;2024-02-26T00:45:29;146.65;;;56.40;;
46753;SDS011;32500;50.620;3.400;2024-02-26T00:47:57;146.43;;;56.15;;
46753;SDS011;32500;50.620;3.400;2024-02-26T00:50:23;145.00;;;55.47;;
46753;SDS011;32500;50.620;3.400;2024-02-26T00:52:48;145.60;;;56.13;;
46753;SDS011;32500;50.620;3.400;2024-02-26T00:55:14;146.48;;;56.22;;
46753;SDS011;32500;50.620;3.400;2024-02-26T00:57:39;146.38;;;56.25;;
46753;SDS011;32500;50.620;3.400;2024-02-26T01:00:06;147.60;;;56.05;;
46753;SDS011;32500;50.620;3.400;2024-02-26T01:02:34;146.95;;;56.05;;
46753;SDS011;32500;50.620;3.400;2024-02-26T01:04:59;146.40;;;56.50;;
46753;SDS011;32500;50.620;3.400;2024-02-26T01:07:25;146.45;;;56.08;;
46753;SDS011;32500;50.620;3.400;2024-02-26T01:09:51;145.57;;;55.80;;
46753;SDS011;32500;50.620;3.400;2024-02-26T01:12:16;146.65;;;55.90;;
46753;SDS011;32500;50.620;3.400;2024-02-26T01:14:42;144.93;;;55.50;;
46753;SDS011;32500;50.620;3.400;2024-02-26T01:17:08;146.82;;;55.90;;
46753;SDS011;32500;50.620;3.400;2024-02-26T01:19:33;146.68;;;56.25;;
46753;SDS011;32500;50.620;3.400;2024-02-26T01:21:59;145.38;;;56.05;;
46753;SDS011;32500;50.620;3.400;2024-02-26T01:24:25;146.55;;;56.10;;
46753;SDS011;32500;50.620;3.400;2024-02-26T01:26:50;145.77;;;56.05;;
46753;SDS011;32500;50.620;3.400;2024-02-26T01:29:16;144.50;;;55.42;;
46753;SDS011;32500;50.620;3.400;2024-02-26T01:31:42;145.65;;;56.10;;
46753;SDS011;32500;50.620;3.400;2024-02-26T01:34:07;145.38;;;56.03;;
46753;SDS011;32500;50.620;3.400;2024-02-26T01:36:33;144.98;;;55.70;;
46753;SDS011;32500;50.620;3.400;2024-02-26T01:38:59;145.48;;;56.00;;
46753;SDS011;32500;50.620;3.400;2024-02-26T01:41:25;144.98;;;55.83;;
46753;SDS011;32500;50.620;3.400;2024-02-26T01:43:50;144.82;;;55.65;;
46753;SDS011;32500;50.620;3.400;2024-02-26T01:46:16;144.70;;;55.92;;
46753;SDS011;32500;50.620;3.400;2024-02-26T01:48:43;145.65;;;56.13;;
46753;SDS011;32500;50.620;3.400;2024-02-26T01:51:11;145.15;;;55.92;;
46753;SDS011;32500;50.620;3.400;2024-02-26T01:53:39;145.27;;;55.65;;
46753;SDS011;32500;50.620;3.400;2024-02-26T01:56:05;145.77;;;56.05;;
46753;SDS011;32500;50.620;3.400;2024-02-26T01:58:31;145.05;;;55.83;;
46753;SDS011;32500;50.620;3.400;2024-02-26T02:00:57;145.63;;;55.83;;
46753;SDS011;32500;50.620;3.400;2024-02-26T02:03:24;144.02;;;55.53;;
46753;SDS011;32500;50.620;3.400;2024-02-26T02:05:50;144.60;;;55.58;;
46753;SDS011;32500;50.620;3.400;2024-02-26T02:08:15;144.35;;;55.85;;
46753;SDS011;32500;50.620;3.400;2024-02-26T02:10:41;144.43;;;55.53;;
46753;SDS011;32500;50.620;3.400;2024-02-26T02:13:07;145.40;;;55.92;;
46753;SDS011;32500;50.620;3.400;2024-02-26T02:15:34;144.73;;;55.60;;
46753;SDS011;32500;50.620;3.400;2024-02-26T02:17:59;144.88;;;55.97;;
46753;SDS011;32500;50.620;3.400;2024-02-26T02:20:26;144.50;;;55.80;;
46753;SDS011;32500;50.620;3.400;2024-02-26T02:23:00;143.52;;;55.38;;
46753;SDS011;32500;50.620;3.400;2024-02-26T02:25:26;144.13;;;55.60;;
46753;SDS011;32500;50.620;3.400;2024-02-26T02:27:55;144.15;;;55.33;;
46753;SDS011;32500;50.620;3.400;2024-02-26T02:30:22;144.57;;;55.60;;
46753;SDS011;32500;50.620;3.400;2024-02-26T02:32:50;144.50;;;55.58;;
46753;SDS011;32500;50.620;3.400;2024-02-26T02:35:16;144.05;;;55.53;;
46753;SDS011;32500;50.620;3.400;2024-02-26T02:37:42;144.52;;;55.72;;
46753;SDS011;32500;50.620;3.400;2024-02-26T02:40:08;144.52;;;55.63;;
46753;SDS011;32500;50.620;3.400;2024-02-26T02:42:33;143.70;;;55.40;;
46753;SDS011;32500;50.620;3.400;2024-02-26T02:44:59;144.10;;;55.45;;
46753;SDS011;32500;50.620;3.400;2024-02-26T02:47:25;144.60;;;55.42;;
46753;SDS011;32500;50.620;3.400;2024-02-26T02:49:50;143.75;;;55.72;;
46753;SDS011;32500;50.620;3.400;2024-02-26T02:52:16;144.75;;;55.60;;
46753;SDS011;32500;50.620;3.400;2024-02-26T02:54:42;143.93;;;55.33;;
46753;SDS011;32500;50.620;3.400;2024-02-26T02:57:08;143.40;;;54.92;;
46753;SDS011;32500;50.620;3.400;2024-02-26T02:59:34;144.38;;;55.75;;
46753;SDS011;32500;50.620;3.400;2024-02-26T03:02:00;143.80;;;55.45;;
46753;SDS011;32500;50.620;3.400;2024-02-26T03:04:25;143.43;;;55.17;;
46753;SDS011;32500;50.620;3.400;2024-02-26T03:06:51;144.30;;;55.38;;
46753;SDS011;32500;50.620;3.400;2024-02-26T03:09:17;143.73;;;55.33;;
46753;SDS011;32500;50.620;3.400;2024-02-26T03:11:43;144.82;;;55.42;;
46753;SDS011;32500;50.620;3.400;2024-02-26T03:14:08;144.57;;;55.38;;
46753;SDS011;32500;50.620;3.400;2024-02-26T03:16:34;145.30;;;55.40;;
46753;SDS011;32500;50.620;3.400;2024-02-26T03:19:00;143.57;;;55.22;;
46753;SDS011;32500;50.620;3.400;2024-02-26T03:21:26;144.98;;;55.75;;
46753;SDS011;32500;50.620;3.400;2024-02-26T03:23:52;143.55;;;55.20;;
46753;SDS011;32500;50.620;3.400;2024-02-26T03:26:18;143.20;;;55.05;;
46753;SDS011;32500;50.620;3.400;2024-02-26T03:28:44;144.10;;;55.60;;
46753;SDS011;32500;50.620;3.400;2024-02-26T03:31:09;146.60;;;55.83;;
46753;SDS011;32500;50.620;3.400;2024-02-26T03:33:38;142.95;;;55.13;;
46753;SDS011;32500;50.620;3.400;2024-02-26T03:36:04;143.20;;;55.25;;
46753;SDS011;32500;50.620;3.400;2024-02-26T03:38:30;143.23;;;55.03;;
46753;SDS011;32500;50.620;3.400;2024-02-26T03:40:55;143.05;;;55.13;;
46753;SDS011;32500;50.620;3.400;2024-02-26T03:43:21;143.20;;;55.15;;
46753;SDS011;32500;50.620;3.400;2024-02-26T03:45:47;143.38;;;55.47;;
46753;SDS011;32500;50.620;3.400;2024-02-26T03:48:12;144.48;;;55.35;;
46753;SDS011;32500;50.620;3.400;2024-02-26T03:50:38;144.02;;;55.65;;
46753;SDS011;32500;50.620;3.400;2024-02-26T03:53:04;144.48;;;56.00;;
46753;SDS011;32500;50.620;3.400;2024-02-26T03:55:30;143.52;;;55.13;;
46753;SDS011;32500;50.620;3.400;2024-02-26T03:57:55;143.40;;;55.45;;
46753;SDS011;32500;50.620;3.400;2024-02-26T04:00:21;145.35;;;55.95;;
46753;SDS011;32500;50.620;3.400;2024-02-26T04:02:47;143.32;;;55.20;;
46753;SDS011;32500;50.620;3.400;2024-02-26T04:05:13;143.68;;;55.40;;
46753;SDS011;32500;50.620;3.400;2024-02-26T04:07:39;143.70;;;55.38;;
46753;SDS011;32500;50.620;3.400;2024-02-26T04:10:12;143.60;;;55.42;;
46753;SDS011;32500;50.620;3.400;2024-02-26T04:12:38;143.85;;;55.50;;
46753;SDS011;32500;50.620;3.400;2024-02-26T04:15:10;143.45;;;55.38;;
46753;SDS011;32500;50.620;3.400;2024-02-26T04:17:36;143.90;;;55.35;;
46753;SDS011;32500;50.620;3.400;2024-02-26T04:20:03;143.32;;;55.17;;
46753;SDS011;32500;50.620;3.400;2024-02-26T04:22:30;143.07;;;55.33;;
46753;SDS011;32500;50.620;3.400;2024-02-26T04:24:57;143.07;;;55.35;;
46753;SDS011;32500;50.620;3.400;2024-02-26T04:27:22;143.00;;;55.03;;
46753;SDS011;32500;50.620;3.400;2024-02-26T04:29:48;143.43;;;55.28;;
46753;SDS011;32500;50.620;3.400;2024-02-26T04:32:14;143.15;;;55.28;;
46753;SDS011;32500;50.620;3.400;2024-02-26T04:34:39;142.60;;;55.28;;
46753;SDS011;32500;50.620;3.400;2024-02-26T04:37:06;143.57;;;55.15;;
46753;SDS011;32500;50.620;3.400;2024-02-26T04:39:32;143.25;;;55.33;;
46753;SDS011;32500;50.620;3.400;2024-02-26T04:41:58;143.98;;;55.08;;
46753;SDS011;32500;50.620;3.400;2024-02-26T04:44:24;143.15;;;55.47;;
46753;SDS011;32500;50.620;3.400;2024-02-26T04:46:50;143.30;;;55.17;;
46753;SDS011;32500;50.620;3.400;2024-02-26T04:49:15;142.85;;;55.30;;
46753;SDS011;32500;50.620;3.400;2024-02-26T04:51:41;143.30;;;55.22;;
46753;SDS011;32500;50.620;3.400;2024-02-26T04:54:06;142.77;;;55.17;;
46753;SDS011;32500;50.620;3.400;2024-02-26T04:56:32;142.55;;;55.10;;
46753;SDS011;32500;50.620;3.400;2024-02-26T04:58:58;142.35;;;55.03;;
46753;SDS011;32500;50.620;3.400;2024-02-26T05:01:23;143.15;;;55.15;;
46753;SDS011;32500;50.620;3.400;2024-02-26T05:03:49;143.57;;;55.47;;
46753;SDS011;32500;50.620;3.400;2024-02-26T05:06:15;142.65;;;55.42;;
46753;SDS011;32500;50.620;3.400;2024-02-26T05:08:40;142.10;;;54.85;;
46753;SDS011;32500;50.620;3.400;2024-02-26T05:11:06;143.23;;;55.25;;
46753;SDS011;32500;50.620;3.400;2024-02-26T05:13:32;143.18;;;55.20;;
46753;SDS011;32500;50.620;3.400;2024-02-26T05:15:58;143.13;;;55.47;;
46753;SDS011;32500;50.620;3.400;2024-02-26T05:18:23;142.10;;;55.03;;
46753;SDS011;32500;50.620;3.400;2024-02-26T05:20:49;142.57;;;55.13;;
46753;SDS011;32500;50.620;3.400;2024-02-26T05:23:14;142.38;;;54.95;;
46753;SDS011;32500;50.620;3.400;2024-02-26T05:25:40;142.73;;;55.38;;
46753;SDS011;32500;50.620;3.400;2024-02-26T05:28:06;143.60;;;55.25;;
46753;SDS011;32500;50.620;3.400;2024-02-26T05:30:32;142.27;;;55.05;;
46753;SDS011;32500;50.620;3.400;2024-02-26T05:32:58;143.55;;;55.13;;
46753;SDS011;32500;50.620;3.400;2024-02-26T05:35:24;143.40;;;55.38;;
46753;SDS011;32500;50.620;3.400;2024-02-26T05:37:50;143.18;;;55.47;;
46753;SDS011;32500;50.620;3.400;2024-02-26T05:40:16;143.00;;;55.55;;
46753;SDS011;32500;50.620;3.400;2024-02-26T05:42:42;142.57;;;54.97;;
46753;SDS011;32500;50.620;3.400;2024-02-26T05:45:10;141.30;;;54.63;;
46753;SDS011;32500;50.620;3.400;2024-02-26T05:47:35;142.77;;;55.13;;
46753;SDS011;32500;50.620;3.400;2024-02-26T05:52:35;140.93;;;54.38;;
46753;SDS011;32500;50.620;3.400;2024-02-26T05:55:05;142.13;;;55.13;;
46753;SDS011;32500;50.620;3.400;2024-02-26T05:57:31;142.15;;;54.88;;
46753;SDS011;32500;50.620;3.400;2024-02-26T05:59:58;145.05;;;55.10;;
46753;SDS011;32500;50.620;3.400;2024-02-26T06:02:28;144.27;;;55.33;;
46753;SDS011;32500;50.620;3.400;2024-02-26T06:04:57;142.50;;;55.17;;
46753;SDS011;32500;50.620;3.400;2024-02-26T06:07:23;143.10;;;54.95;;
46753;SDS011;32500;50.620;3.400;2024-02-26T06:09:49;142.98;;;55.33;;
46753;SDS011;32500;50.620;3.400;2024-02-26T06:12:14;144.52;;;55.25;;
46753;SDS011;32500;50.620;3.400;2024-02-26T06:14:41;144.35;;;55.58;;
46753;SDS011;32500;50.620;3.400;2024-02-26T06:17:08;143.07;;;54.95;;
46753;SDS011;32500;50.620;3.400;2024-02-26T06:19:34;143.60;;;55.50;;
46753;SDS011;32500;50.620;3.400;2024-02-26T06:21:59;143.18;;;55.13;;
46753;SDS011;32500;50.620;3.400;2024-02-26T06:24:25;142.52;;;55.00;;
46753;SDS011;32500;50.620;3.400;2024-02-26T06:26:51;142.48;;;54.83;;
46753;SDS011;32500;50.620;3.400;2024-02-26T06:29:17;142.18;;;54.97;;
46753;SDS011;32500;50.620;3.400;2024-02-26T06:31:43;142.82;;;54.80;;
46753;SDS011;32500;50.620;3.400;2024-02-26T06:34:08;142.65;;;55.13;;
46753;SDS011;32500;50.620;3.400;2024-02-26T06:36:34;142.43;;;55.05;;
46753;SDS011;32500;50.620;3.400;2024-02-26T06:39:00;142.23;;;54.95;;
46753;SDS011;32500;50.620;3.400;2024-02-26T06:41:25;142.43;;;55.13;;
46753;SDS011;32500;50.620;3.400;2024-02-26T06:43:55;141.70;;;54.90;;
46753;SDS011;32500;50.620;3.400;2024-02-26T06:46:20;143.27;;;55.47;;
46753;SDS011;32500;50.620;3.400;2024-02-26T06:48:47;141.52;;;54.70;;
46753;SDS011;32500;50.620;3.400;2024-02-26T06:51:13;142.63;;;55.15;;
46753;SDS011;32500;50.620;3.400;2024-02-26T06:53:39;141.50;;;54.90;;
46753;SDS011;32500;50.620;3.400;2024-02-26T06:56:05;142.63;;;55.33;;
46753;SDS011;32500;50.620;3.400;2024-02-26T06:58:31;142.43;;;55.20;;
46753;SDS011;32500;50.620;3.400;2024-02-26T07:00:57;142.45;;;55.13;;
46753;SDS011;32500;50.620;3.400;2024-02-26T07:03:22;142.07;;;55.25;;
46753;SDS011;32500;50.620;3.400;2024-02-26T07:05:49;143.77;;;55.38;;
46753;SDS011;32500;50.620;3.400;2024-02-26T07:08:15;143.73;;;55.35;;
46753;SDS011;32500;50.620;3.400;2024-02-26T07:10:41;144.85;;;55.58;;
46753;SDS011;32500;50.620;3.400;2024-02-26T07:13:08;142.07;;;55.00;;
46753;SDS011;32500;50.620;3.400;2024-02-26T07:15:34;143.38;;;55.47;;
46753;SDS011;32500;50.620;3.400;2024-02-26T07:18:00;142.00;;;55.25;;
46753;SDS011;32500;50.620;3.400;2024-02-26T07:20:28;142.10;;;55.17;;
46753;SDS011;32500;50.620;3.400;2024-02-26T07:22:55;144.82;;;55.42;;
46753;SDS011;32500;50.620;3.400;2024-02-26T07:25:21;142.25;;;55.25;;
46753;SDS011;32500;50.620;3.400;2024-02-26T07:27:47;142.52;;;55.28;;
46753;SDS011;32500;50.620;3.400;2024-02-26T07:30:12;142.00;;;55.17;;
46753;SDS011;32500;50.620;3.400;2024-02-26T07:32:38;141.93;;;54.97;;
46753;SDS011;32500;50.620;3.400;2024-02-26T07:35:04;142.93;;;55.13;;
46753;SDS011;32500;50.620;3.400;2024-02-26T07:37:30;141.15;;;55.05;;
46753;SDS011;32500;50.620;3.400;2024-02-26T07:39:56;141.30;;;54.92;;
46753;SDS011;32500;50.620;3.400;2024-02-26T07:42:22;143.25;;;54.95;;
46753;SDS011;32500;50.620;3.400;2024-02-26T07:44:47;142.38;;;54.85;;
46753;SDS011;32500;50.620;3.400;2024-02-26T07:47:13;142.52;;;55.30;;
46753;SDS011;32500;50.620;3.400;2024-02-26T07:49:39;142.98;;;54.78;;
46753;SDS011;32500;50.620;3.400;2024-02-26T07:52:05;141.85;;;55.00;;
46753;SDS011;32500;50.620;3.400;2024-02-26T07:54:31;141.70;;;54.95;;
46753;SDS011;32500;50.620;3.400;2024-02-26T07:56:57;142.13;;;54.85;;
46753;SDS011;32500;50.620;3.400;2024-02-26T07:59:22;142.95;;;55.05;;
46753;SDS011;32500;50.620;3.400;2024-02-26T08:01:52;141.55;;;54.88;;
46753;SDS011;32500;50.620;3.400;2024-02-26T08:04:18;141.50;;;55.15;;
46753;SDS011;32500;50.620;3.400;2024-02-26T08:06:43;141.38;;;54.92;;
46753;SDS011;32500;50.620;3.400;2024-02-26T08:09:09;142.50;;;55.40;;
46753;SDS011;32500;50.620;3.400;2024-02-26T08:11:35;141.68;;;55.00;;
46753;SDS011;32500;50.620;3.400;2024-02-26T08:14:00;141.65;;;55.03;;
46753;SDS011;32500;50.620;3.400;2024-02-26T08:16:26;142.32;;;55.10;;
46753;SDS011;32500;50.620;3.400;2024-02-26T08:18:52;142.15;;;55.22;;
46753;SDS011;32500;50.620;3.400;2024-02-26T08:21:18;142.00;;;55.13;;
46753;SDS011;32500;50.620;3.400;2024-02-26T08:23:43;141.23;;;54.70;;
46753;SDS011;32500;50.620;3.400;2024-02-26T08:26:09;142.32;;;55.47;;
46753;SDS011;32500;50.620;3.400;2024-02-26T08:28:39;141.32;;;54.72;;
46753;SDS011;32500;50.620;3.400;2024-02-26T08:31:04;140.93;;;54.97;;
46753;SDS011;32500;50.620;3.400;2024-02-26T08:33:30;141.73;;;55.05;;
46753;SDS011;32500;50.620;3.400;2024-02-26T08:35:56;141.88;;;54.95;;
46753;SDS011;32500;50.620;3.400;2024-02-26T08:38:22;140.35;;;54.50;;
46753;SDS011;32500;50.620;3.400;2024-02-26T08:40:48;142.20;;;55.28;;
46753;SDS011;32500;50.620;3.400;2024-02-26T08:43:14;140.40;;;54.72;;
46753;SDS011;32500;50.620;3.400;2024-02-26T08:45:39;142.02;;;55.00;;
46753;SDS011;32500;50.620;3.400;2024-02-26T08:48:05;141.65;;;55.47;;
46753;SDS011;32500;50.620;3.400;2024-02-26T08:50:31;141.18;;;55.00;;
46753;SDS011;32500;50.620;3.400;2024-02-26T08:52:57;142.45;;;55.00;;
46753;SDS011;32500;50.620;3.400;2024-02-26T08:55:23;142.43;;;55.10;;
46753;SDS011;32500;50.620;3.400;2024-02-26T08:57:48;145.20;;;55.08;;
46753;SDS011;32500;50.620;3.400;2024-02-26T09:00:14;141.98;;;55.00;;
46753;SDS011;32500;50.620;3.400;2024-02-26T09:02:45;140.63;;;54.63;;
46753;SDS011;32500;50.620;3.400;2024-02-26T09:05:12;141.48;;;55.22;;
46753;SDS011;32500;50.620;3.400;2024-02-26T09:07:37;143.00;;;55.38;;
46753;SDS011;32500;50.620;3.400;2024-02-26T09:10:04;145.05;;;55.03;;
46753;SDS011;32500;50.620;3.400;2024-02-26T09:12:30;142.60;;;55.35;;
46753;SDS011;32500;50.620;3.400;2024-02-26T09:14:56;142.30;;;55.05;;
46753;SDS011;32500;50.620;3.400;2024-02-26T09:17:22;142.48;;;55.13;;
46753;SDS011;32500;50.620;3.400;2024-02-26T09:19:51;144.18;;;55.00;;
46753;SDS011;32500;50.620;3.400;2024-02-26T09:22:16;144.20;;;55.08;;
46753;SDS011;32500;50.620;3.400;2024-02-26T09:24:42;142.90;;;54.88;;
46753;SDS011;32500;50.620;3.400;2024-02-26T09:27:08;142.02;;;55.08;;
46753;SDS011;32500;50.620;3.400;2024-02-26T09:29:35;143.88;;;55.10;;
46753;SDS011;32500;50.620;3.400;2024-02-26T09:32:00;143.60;;;55.00;;
46753;SDS011;32500;50.620;3.400;2024-02-26T09:34:26;142.90;;;55.10;;
46753;SDS011;32500;50.620;3.400;2024-02-26T09:36:52;145.82;;;55.25;;
46753;SDS011;32500;50.620;3.400;2024-02-26T09:39:18;145.95;;;55.72;;
46753;SDS011;32500;50.620;3.400;2024-02-26T09:41:46;144.35;;;55.35;;
46753;SDS011;32500;50.620;3.400;2024-02-26T09:44:14;144.70;;;55.25;;
46753;SDS011;32500;50.620;3.400;2024-02-26T09:46:45;144.82;;;54.97;;
46753;SDS011;32500;50.620;3.400;2024-02-26T09:49:12;143.80;;;55.20;;
46753;SDS011;32500;50.620;3.400;2024-02-26T09:51:40;143.80;;;55.13;;
46753;SDS011;32500;50.620;3.400;2024-02-26T09:54:07;141.93;;;55.03;;
46753;SDS011;32500;50.620;3.400;2024-02-26T09:56:35;144.90;;;55.55;;
46753;SDS011;32500;50.620;3.400;2024-02-26T09:59:04;141.65;;;54.70;;
46753;SDS011;32500;50.620;3.400;2024-02-26T10:01:33;143.15;;;55.03;;
46753;SDS011;32500;50.620;3.400;2024-02-26T10:03:59;148.13;;;55.10;;
46753;SDS011;32500;50.620;3.400;2024-02-26T10:06:28;142.27;;;55.35;;
46753;SDS011;32500;50.620;3.400;2024-02-26T10:08:54;145.75;;;54.90;;
46753;SDS011;32500;50.620;3.400;2024-02-26T10:11:23;145.27;;;55.33;;
46753;SDS011;32500;50.620;3.400;2024-02-26T10:13:50;142.68;;;54.92;;
46753;SDS011;32500;50.620;3.400;2024-02-26T10:16:15;144.70;;;55.55;;
46753;SDS011;32500;50.620;3.400;2024-02-26T10:18:48;144.68;;;55.08;;
46753;SDS011;32500;50.620;3.400;2024-02-26T10:21:18;145.80;;;55.42;;
46753;SDS011;32500;50.620;3.400;2024-02-26T10:23:44;148.88;;;55.35;;
46753;SDS011;32500;50.620;3.400;2024-02-26T10:26:11;145.68;;;55.20;;
46753;SDS011;32500;50.620;3.400;2024-02-26T10:28:37;143.40;;;55.38;;
46753;SDS011;32500;50.620;3.400;2024-02-26T10:31:04;141.45;;;54.90;;
46753;SDS011;32500;50.620;3.400;2024-02-26T10:33:31;144.55;;;55.10;;
46753;SDS011;32500;50.620;3.400;2024-02-26T10:36:00;144.43;;;54.77;;
46753;SDS011;32500;50.620;3.400;2024-02-26T10:38:26;147.18;;;55.38;;
46753;SDS011;32500;50.620;3.400;2024-02-26T10:40:52;143.23;;;55.35;;
46753;SDS011;32500;50.620;3.400;2024-02-26T10:43:17;142.70;;;55.40;;
46753;SDS011;32500;50.620;3.400;2024-02-26T10:45:43;142.82;;;54.95;;
46753;SDS011;32500;50.620;3.400;2024-02-26T10:48:10;143.15;;;55.22;;
46753;SDS011;32500;50.620;3.400;2024-02-26T10:50:38;143.57;;;55.08;;
46753;SDS011;32500;50.620;3.400;2024-02-26T10:53:05;143.20;;;55.13;;
46753;SDS011;32500;50.620;3.400;2024-02-26T10:55:37;141.35;;;55.00;;
46753;SDS011;32500;50.620;3.400;2024-02-26T10:58:04;144.30;;;55.08;;
46753;SDS011;32500;50.620;3.400;2024-02-26T11:00:32;142.30;;;55.33;;
46753;SDS011;32500;50.620;3.400;2024-02-26T11:02:58;145.88;;;54.80;;
46753;SDS011;32500;50.620;3.400;2024-02-26T11:05:26;148.65;;;55.75;;
46753;SDS011;32500;50.620;3.400;2024-02-26T11:07:53;142.18;;;55.28;;
46753;SDS011;32500;50.620;3.400;2024-02-26T11:10:20;146.18;;;55.75;;
46753;SDS011;32500;50.620;3.400;2024-02-26T11:12:47;141.82;;;55.13;;
46753;SDS011;32500;50.620;3.400;2024-02-26T11:15:14;143.60;;;55.47;;
46753;SDS011;32500;50.620;3.400;2024-02-26T11:17:41;148.27;;;56.00;;
46753;SDS011;32500;50.620;3.400;2024-02-26T11:20:09;145.43;;;55.33;;
46753;SDS011;32500;50.620;3.400;2024-02-26T11:22:37;143.45;;;55.55;;
46753;SDS011;32500;50.620;3.400;2024-02-26T11:25:03;142.77;;;55.28;;
46753;SDS011;32500;50.620;3.400;2024-02-26T11:27:30;144.15;;;55.42;;
46753;SDS011;32500;50.620;3.400;2024-02-26T11:30:08;143.05;;;55.45;;
46753;SDS011;32500;50.620;3.400;2024-02-26T11:32:35;145.07;;;55.50;;
46753;SDS011;32500;50.620;3.400;2024-02-26T11:35:02;142.27;;;55.53;;
46753;SDS011;32500;50.620;3.400;2024-02-26T11:37:30;142.68;;;55.13;;
46753;SDS011;32500;50.620;3.400;2024-02-26T11:39:59;143.73;;;55.72;;
46753;SDS011;32500;50.620;3.400;2024-02-26T11:42:26;145.57;;;55.53;;
46753;SDS011;32500;50.620;3.400;2024-02-26T11:44:53;143.20;;;55.15;;
46753;SDS011;32500;50.620;3.400;2024-02-26T11:47:21;147.85;;;55.83;;
46753;SDS011;32500;50.620;3.400;2024-02-26T11:49:47;144.68;;;55.60;;
46753;SDS011;32500;50.620;3.400;2024-02-26T11:52:14;143.07;;;55.45;;
46753;SDS011;32500;50.620;3.400;2024-02-26T11:54:53;142.77;;;55.45;;
46753;SDS011;32500;50.620;3.400;2024-02-26T11:59:46;142.50;;;55.50;;
46753;SDS011;32500;50.620;3.400;2024-02-26T12:02:23;142.95;;;55.13;;
46753;SDS011;32500;50.620;3.400;2024-02-26T12:05:17;141.32;;;55.20;;
46753;SDS011;32500;50.620;3.400;2024-02-26T12:08:03;142.27;;;55.17;;
46753;SDS011;32500;50.620;3.400;2024-02-26T12:10:32;143.05;;;55.05;;
46753;SDS011;32500;50.620;3.400;2024-02-26T12:13:07;147.18;;;55.63;;
46753;SDS011;32500;50.620;3.400;2024-02-26T12:15:38;144.00;;;55.42;;
46753;SDS011;32500;50.620;3.400;2024-02-26T12:18:15;146.43;;;56.28;;
46753;SDS011;32500;50.620;3.400;2024-02-26T12:20:42;142.80;;;55.72;;
46753;SDS011;32500;50.620;3.400;2024-02-26T12:23:15;148.00;;;55.50;;
46753;SDS011;32500;50.620;3.400;2024-02-26T12:25:44;144.65;;;55.95;;
46753;SDS011;32500;50.620;3.400;2024-02-26T12:28:13;141.85;;;55.35;;
46753;SDS011;32500;50.620;3.400;2024-02-26T12:30:39;142.82;;;55.63;;
46753;SDS011;32500;50.620;3.400;2024-02-26T12:33:05;147.25;;;55.72;;
46753;SDS011;32500;50.620;3.400;2024-02-26T12:35:33;144.32;;;55.70;;
46753;SDS011;32500;50.620;3.400;2024-02-26T12:38:00;143.18;;;55.70;;
46753;SDS011;32500;50.620;3.400;2024-02-26T12:40:28;143.50;;;55.65;;
46753;SDS011;32500;50.620;3.400;2024-02-26T12:42:55;144.88;;;56.13;;
46753;SDS011;32500;50.620;3.400;2024-02-26T12:45:20;142.85;;;55.63;;
46753;SDS011;32500;50.620;3.400;2024-02-26T12:47:46;146.30;;;55.50;;
46753;SDS011;32500;50.620;3.400;2024-02-26T12:50:13;144.02;;;55.72;;
46753;SDS011;32500;50.620;3.400;2024-02-26T12:52:40;142.07;;;55.53;;
46753;SDS011;32500;50.620;3.400;2024-02-26T12:55:11;142.60;;;55.55;;
46753;SDS011;32500;50.620;3.400;2024-02-26T12:57:43;143.43;;;55.50;;
46753;SDS011;32500;50.620;3.400;2024-02-26T13:00:13;143.70;;;55.65;;
46753;SDS011;32500;50.620;3.400;2024-02-26T13:02:41;144.23;;;55.55;;
46753;SDS011;32500;50.620;3.400;2024-02-26T13:05:09;143.75;;;54.92;;
46753;SDS011;32500;50.620;3.400;2024-02-26T13:07:42;142.95;;;55.25;;
46753;SDS011;32500;50.620;3.400;2024-02-26T13:10:09;143.50;;;55.63;;
46753;SDS011;32500;50.620;3.400;2024-02-26T13:12:37;141.98;;;55.03;;
46753;SDS011;32500;50.620;3.400;2024-02-26T13:15:06;144.27;;;55.50;;
46753;SDS011;32500;50.620;3.400;2024-02-26T13:17:34;141.95;;;55.03;;
46753;SDS011;32500;50.620;3.400;2024-02-26T13:20:00;144.27;;;55.58;;
46753;SDS011;32500;50.620;3.400;2024-02-26T13:22:26;143.07;;;55.17;;
46753;SDS011;32500;50.620;3.400;2024-02-26T13:24:58;142.52;;;55.33;;
46753;SDS011;32500;50.620;3.400;2024-02-26T13:27:25;143.90;;;55.45;;
46753;SDS011;32500;50.620;3.400;2024-02-26T13:30:09;142.05;;;55.25;;
46753;SDS011;32500;50.620;3.400;2024-02-26T13:32:36;143.60;;;55.13;;
46753;SDS011;32500;50.620;3.400;2024-02-26T13:37:41;141.18;;;55.25;;
46753;SDS011;32500;50.620;3.400;2024-02-26T13:40:10;142.25;;;55.45;;
46753;SDS011;32500;50.620;3.400;2024-02-26T13:42:36;144.13;;;55.45;;
46753;SDS011;32500;50.620;3.400;2024-02-26T13:45:03;142.40;;;55.17;;
46753;SDS011;32500;50.620;3.400;2024-02-26T13:47:33;141.38;;;55.28;;
46753;SDS011;32500;50.620;3.400;2024-02-26T13:49:59;142.77;;;55.35;;
46753;SDS011;32500;50.620;3.400;2024-02-26T13:52:25;142.52;;;55.28;;
46753;SDS011;32500;50.620;3.400;2024-02-26T13:54:51;143.38;;;55.58;;
46753;SDS011;32500;50.620;3.400;2024-02-26T13:57:17;143.23;;;54.78;;
46753;SDS011;32500;50.620;3.400;2024-02-26T13:59:44;141.73;;;54.92;;
46753;SDS011;32500;50.620;3.400;2024-02-26T14:02:10;140.50;;;54.78;;
46753;SDS011;32500;50.620;3.400;2024-02-26T14:04:36;141.55;;;55.22;;
46753;SDS011;32500;50.620;3.400;2024-02-26T14:07:02;141.30;;;54.55;;
46753;SDS011;32500;50.620;3.400;2024-02-26T14:09:29;142.15;;;55.40;;
46753;SDS011;32500;50.620;3.400;2024-02-26T14:11:54;144.10;;;55.22;;
46753;SDS011;32500;50.620;3.400;2024-02-26T14:14:20;143.73;;;55.20;;